createdAt,value
2018-03-14T00:00:31.306Z,1013.7
2018-03-14T00:05:31.163Z,1013.7
2018-03-14T00:10:31.133Z,1013.7
2018-03-14T00:15:32.123Z,1013.8
2018-03-14T00:20:31.817Z,1013.8
2018-03-14T00:25:31.060Z,1013.8
2018-03-14T00:30:32.112Z,1013.8
2018-03-14T00:35:30.869Z,1013.8
2018-03-14T00:40:31.161Z,1013.7
2018-03-14T00:45:31.034Z,1013.7
2018-03-14T00:50:31.192Z,1013.8
2018-03-14T00:55:31.147Z,1013.8
2018-03-14T01:00:31.426Z,1013.9
2018-03-14T01:05:30.894Z,1013.8
2018-03-14T01:46:03.701Z,1013.9
2018-03-14T01:46:03.755Z,1013.9
2018-03-14T01:47:20.655Z,1013.9
2018-03-14T01:50:46.415Z,1013.9
2018-03-14T01:55:48.040Z,1013.9
2018-03-14T02:00:48.579Z,1013.8
2018-03-14T02:05:50.325Z,1013.8
2018-03-14T02:10:48.050Z,1013.7
2018-03-14T02:15:47.697Z,1013.7
2018-03-14T02:20:48.162Z,1013.7
2018-03-14T02:26:45.623Z,1013.7
2018-03-14T02:30:55.513Z,1013.7
2018-03-14T02:35:46.506Z,1013.7
2018-03-14T02:40:46.359Z,1013.7
2018-03-14T02:45:46.060Z,1013.7
2018-03-14T02:50:46.327Z,1013.7
2018-03-14T02:55:46.586Z,1013.8
2018-03-14T03:00:47.209Z,1013.8
2018-03-14T03:05:50.107Z,1013.6
2018-03-14T03:10:46.334Z,1013.6
2018-03-14T03:15:47.256Z,1013.6
2018-03-14T03:20:48.147Z,1013.6
2018-03-14T03:25:46.692Z,1013.6
2018-03-14T03:30:48.572Z,1013.6
2018-03-14T03:35:46.244Z,1013.5
2018-03-14T03:40:51.556Z,1013.6
2018-03-14T03:45:48.638Z,1013.6
2018-03-14T03:50:51.419Z,1013.6
2018-03-14T03:55:47.777Z,1013.5
2018-03-14T04:00:46.926Z,1013.5
2018-03-14T04:05:47.279Z,1013.5
2018-03-14T04:10:48.756Z,1013.5
2018-03-14T04:15:46.974Z,1013.5
2018-03-14T04:20:48.270Z,1013.5
2018-03-14T04:25:47.993Z,1013.5
2018-03-14T04:30:46.466Z,1013.5
2018-03-14T04:35:47.117Z,1013.5
2018-03-14T04:40:51.536Z,1013.5
2018-03-14T04:45:48.608Z,1013.4
2018-03-14T04:50:46.301Z,1013.4
2018-03-14T04:55:47.216Z,1013.4
2018-03-14T05:00:48.601Z,1013.4
2018-03-14T05:05:54.399Z,1013.5
2018-03-14T05:10:45.785Z,1013.5
2018-03-14T05:15:48.952Z,1013.5
2018-03-14T05:20:46.161Z,1013.5
2018-03-14T05:25:56.614Z,1013.5
2018-03-14T05:48:20.189Z,1013.5
2018-03-14T05:57:31.786Z,1013.5
2018-03-14T05:59:19.160Z,1013.5
2018-03-14T06:05:04.089Z,1013.6
2018-03-14T06:09:03.505Z,1013.5
2018-03-14T06:17:41.563Z,1013.5
2018-03-14T06:17:42.113Z,1013.5
2018-03-14T06:17:47.122Z,1013.5
2018-03-14T06:21:47.049Z,1013.5
2018-03-14T06:26:02.051Z,1013.5
2018-03-14T06:30:45.574Z,1013.5
2018-03-14T06:38:34.070Z,1013.6
2018-03-14T06:41:51.657Z,1013.6
2018-03-14T06:45:47.755Z,1013.7
2018-03-14T06:50:51.411Z,1013.7
2018-03-14T06:55:46.822Z,1013.8
2018-03-14T07:00:46.168Z,1013.9
2018-03-14T07:05:54.935Z,1013.9
2018-03-14T07:10:46.299Z,1013.9
2018-03-14T07:15:47.810Z,1013.9
2018-03-14T07:21:11.287Z,1014
2018-03-14T07:25:48.340Z,1014.1
2018-03-14T07:31:40.131Z,1014
2018-03-14T07:35:57.788Z,1014.1
2018-03-14T07:41:34.177Z,1014.1
2018-03-14T07:47:02.164Z,1014.1
2018-03-14T07:50:46.575Z,1014
2018-03-14T07:56:46.539Z,1013.9
2018-03-14T08:00:45.309Z,1013.9
2018-03-14T08:05:48.988Z,1013.9
2018-03-14T08:13:26.425Z,1013.8
2018-03-14T08:16:14.612Z,1013.8
2018-03-14T08:20:45.941Z,1013.8
2018-03-14T08:28:00.768Z,1013.7
2018-03-14T08:32:17.268Z,1013.8
2018-03-14T08:35:45.879Z,1013.8
2018-03-14T08:41:25.694Z,1013.7
2018-03-14T08:46:39.167Z,1013.8
2018-03-14T08:50:45.662Z,1013.9
2018-03-14T08:55:57.077Z,1013.9
2018-03-14T09:00:47.266Z,1013.9
2018-03-14T09:05:52.283Z,1014
2018-03-14T09:10:55.369Z,1013.9
2018-03-14T09:15:45.872Z,1013.9
2018-03-14T09:20:54.892Z,1014
2018-03-14T09:25:56.592Z,1014
2018-03-14T09:30:51.240Z,1014
2018-03-14T09:35:47.864Z,1014
2018-03-14T09:41:49.108Z,1014
2018-03-14T09:45:46.620Z,1014
2018-03-14T09:50:55.494Z,1013.9
2018-03-14T09:55:53.732Z,1014
2018-03-14T10:02:29.195Z,1013.9
2018-03-14T10:05:45.668Z,1013.9
2018-03-14T10:11:04.974Z,1013.7
2018-03-14T10:15:46.070Z,1013.7
2018-03-14T10:20:50.363Z,1013.6
2018-03-14T10:25:47.365Z,1013.5
2018-03-14T10:30:58.870Z,1013.5
2018-03-14T10:35:45.882Z,1013.6
2018-03-14T10:41:12.656Z,1013.6
2018-03-14T10:45:47.374Z,1013.6
2018-03-14T10:50:49.536Z,1013.5
2018-03-14T10:56:05.746Z,1013.4
2018-03-14T11:00:46.686Z,1013.2
2018-03-14T11:05:46.339Z,1013.2
2018-03-14T11:10:45.401Z,1013.1
2018-03-14T11:17:27.619Z,1012.9
2018-03-14T11:20:45.905Z,1012.8
2018-03-14T11:25:50.737Z,1012.7
2018-03-14T11:31:22.290Z,1012.6
2018-03-14T11:35:44.888Z,1012.6
2018-03-14T11:40:49.269Z,1012.5
2018-03-14T11:46:25.740Z,1012.4
2018-03-14T11:50:45.160Z,1012.3
2018-03-14T11:55:47.089Z,1012.2
2018-03-14T12:00:50.050Z,1012
2018-03-14T12:06:00.009Z,1011.9
2018-03-14T12:10:45.346Z,1011.8
2018-03-14T12:16:19.403Z,1011.7
2018-03-14T12:20:45.685Z,1011.7
2018-03-14T12:25:44.829Z,1011.6
2018-03-14T12:31:25.058Z,1011.5
2018-03-14T12:35:46.080Z,1011.5
2018-03-14T12:40:47.947Z,1011.4
2018-03-14T12:46:55.079Z,1011.3
2018-03-14T12:50:47.937Z,1011.2
2018-03-14T12:55:48.006Z,1011.1
2018-03-14T13:00:48.700Z,1011
2018-03-14T13:05:52.626Z,1011
2018-03-14T13:10:50.789Z,1010.9
2018-03-14T13:15:49.291Z,1010.8
2018-03-14T13:21:13.664Z,1010.8
2018-03-14T13:25:47.324Z,1010.7
2018-03-14T13:30:53.767Z,1010.7
2018-03-14T13:35:46.000Z,1010.6
2018-03-14T13:41:18.697Z,1010.5
2018-03-14T13:45:45.964Z,1010.5
2018-03-14T13:50:47.797Z,1010.4
2018-03-14T13:55:54.261Z,1010.4
2018-03-14T14:00:46.074Z,1010.2
2018-03-14T14:07:56.383Z,1010.2
2018-03-14T14:10:46.608Z,1010.2
2018-03-14T14:15:56.265Z,1010.1
2018-03-14T14:20:56.217Z,1010
2018-03-14T14:25:47.118Z,1010
2018-03-14T14:30:50.143Z,1010
2018-03-14T14:35:46.134Z,1009.9
2018-03-14T14:40:48.356Z,1009.8
2018-03-14T14:45:45.979Z,1009.7
2018-03-14T14:50:46.504Z,1009.6
2018-03-14T14:55:45.439Z,1009.6
2018-03-14T15:00:45.615Z,1009.5
2018-03-14T15:05:47.731Z,1009.4
2018-03-14T15:10:48.709Z,1009.4
2018-03-14T15:15:49.257Z,1009.3
2018-03-14T15:20:53.600Z,1009.3
2018-03-14T15:25:46.543Z,1009.4
2018-03-14T15:30:47.930Z,1009.3
2018-03-14T15:36:34.322Z,1009.3
2018-03-14T15:40:45.398Z,1009.2
2018-03-14T15:45:46.136Z,1009.1
2018-03-14T15:51:21.007Z,1009.1
2018-03-14T15:56:38.846Z,1009.1
2018-03-14T16:00:45.679Z,1008.9
2018-03-14T16:05:54.474Z,1008.8
2018-03-14T16:11:58.028Z,1008.8
2018-03-14T16:17:04.521Z,1008.8
2018-03-14T16:22:33.540Z,1008.7
2018-03-14T16:25:48.108Z,1008.7
2018-03-14T16:30:46.973Z,1008.7
2018-03-14T16:35:44.543Z,1008.7
2018-03-14T16:40:54.490Z,1008.7
2018-03-14T16:45:44.792Z,1008.6
2018-03-14T16:50:45.666Z,1008.7
2018-03-14T16:55:45.251Z,1008.6
2018-03-14T17:00:46.376Z,1008.5
2018-03-14T17:06:12.198Z,1008.5
2018-03-14T17:10:48.709Z,1008.5
2018-03-14T17:15:48.937Z,1008.4
2018-03-14T17:20:45.895Z,1008.3
2018-03-14T17:25:46.923Z,1008.2
2018-03-14T17:30:47.571Z,1008.1
2018-03-14T17:35:47.295Z,1008.1
2018-03-14T17:40:46.161Z,1008
2018-03-14T17:45:46.184Z,1007.9
2018-03-14T17:50:48.190Z,1008
2018-03-14T17:55:47.944Z,1007.9
2018-03-14T18:00:51.930Z,1007.8
2018-03-14T18:05:44.589Z,1007.8
2018-03-14T18:10:49.191Z,1007.8
2018-03-14T18:15:48.131Z,1007.8
2018-03-14T18:20:47.036Z,1007.7
2018-03-14T18:25:48.039Z,1007.7
2018-03-14T18:31:21.570Z,1007.7
2018-03-14T18:35:44.396Z,1007.6
2018-03-14T18:40:45.085Z,1007.5
2018-03-14T18:45:55.400Z,1007.5
2018-03-14T18:50:44.981Z,1007.5
2018-03-14T18:55:45.312Z,1007.5
2018-03-14T19:00:49.915Z,1007.5
2018-03-14T19:05:45.888Z,1007.5
2018-03-14T19:10:46.668Z,1007.5
2018-03-14T19:17:22.570Z,1007.4
2018-03-14T19:20:44.120Z,1007.4
2018-03-14T19:25:45.486Z,1007.2
2018-03-14T19:30:49.523Z,1007.1
2018-03-14T19:35:45.708Z,1007
2018-03-14T19:40:46.010Z,1006.9
2018-03-14T19:46:00.690Z,1006.9
2018-03-14T19:50:44.389Z,1006.8
2018-03-14T19:55:44.773Z,1006.9
2018-03-14T20:01:00.638Z,1006.8
2018-03-14T20:05:44.902Z,1006.7
2018-03-14T20:10:46.526Z,1006.7
2018-03-14T20:16:00.777Z,1006.6
2018-03-14T20:20:44.621Z,1006.6
2018-03-14T20:25:45.882Z,1006.5
2018-03-14T20:30:48.664Z,1006.5
2018-03-14T20:35:44.217Z,1006.4
2018-03-14T20:40:47.475Z,1006.3
2018-03-14T20:45:47.473Z,1006.3
2018-03-14T20:50:45.355Z,1006.2
2018-03-14T20:55:48.305Z,1006.1
2018-03-14T21:00:45.683Z,1006
2018-03-14T21:05:45.848Z,1006
2018-03-14T21:10:44.270Z,1005.9
2018-03-14T21:15:46.453Z,1005.9
2018-03-14T21:20:54.350Z,1005.8
2018-03-14T21:25:44.135Z,1005.9
2018-03-14T21:30:44.683Z,1005.7
2018-03-14T21:35:44.654Z,1005.7
2018-03-14T21:40:46.632Z,1005.6
2018-03-14T21:45:44.793Z,1005.5
2018-03-14T21:50:47.996Z,1005.4
2018-03-14T21:55:46.939Z,1005.4
2018-03-14T22:00:47.847Z,1005.3
2018-03-14T22:05:57.500Z,1005.2
2018-03-14T22:10:44.023Z,1005.1
2018-03-14T22:15:46.835Z,1005.1
2018-03-14T22:21:09.948Z,1005.1
2018-03-14T22:25:45.047Z,1005
2018-03-14T22:30:44.556Z,1004.9
2018-03-14T22:36:08.310Z,1004.8
2018-03-14T22:40:45.534Z,1004.9
2018-03-14T22:45:46.385Z,1004.8
2018-03-14T22:51:00.322Z,1004.8
2018-03-14T22:55:43.781Z,1004.6
2018-03-14T23:00:44.788Z,1004.5
2018-03-14T23:05:56.163Z,1004.4
2018-03-14T23:10:45.084Z,1004.3
2018-03-14T23:15:45.089Z,1004.3
2018-03-14T23:20:55.639Z,1004.2
2018-03-14T23:25:44.076Z,1004.1
2018-03-14T23:30:44.446Z,1004
2018-03-14T23:36:06.612Z,1003.9
2018-03-14T23:40:44.374Z,1003.9
2018-03-14T23:45:45.826Z,1003.8
2018-03-14T23:51:30.570Z,1003.7
2018-03-14T23:55:43.495Z,1003.6
